Impacts METAR Board
IDs:

KEDC - Austin/Executive Arp, TX, US

Updated at: 0600 UTC 19 Aug 2019
Potential Impact None Slight Moderate High
Time 18/18Z 18/19Z 18/20Z 18/21Z 18/22Z 18/23Z 19/00Z 19/01Z 19/02Z 19/03Z 19/04Z 19/05Z 19/06Z
Temp91 95 99 99 99 99 99 95 91 88 84 82 81
Dewpt70 68 68 66 64 64 64 66 68 68 70 72 73
Altim29.91 29.90 29.89 29.86 29.85 29.84 29.84 29.84 29.86 29.89 29.93 29.94 29.95
VIS10 10 10 9 10 10 10 10 10 10 10 10 10
CIG-- -- -- -- -- -- -- -- -- -- -- -- --
CoverFEWCLRCLRCLRCLRCLRCLRSCTCLRCLRCLRFEWCLR
FltCatVFRVFRVFRVFRVFRVFRVFRVFRVFRVFRVFRVFRVFR
WX--------------------------
WDir210180170200190190170140160170170190190
WSpd9 7 10 8 8 7 6 10 9 8 4 7 6
WGst16 -- 17 15 -- -- -- 15 -- 16 -- -- --
Raw hourly METARs
KEDC 181755Z AUTO 21009G16KT 10SM FEW047 33/21 A2991 RMK AO2
KEDC 181855Z AUTO 18007KT 150V240 10SM CLR 35/20 A2990 RMK AO2
KEDC 181955Z AUTO 17010G17KT 10SM CLR 37/20 A2989 RMK AO2
KEDC 182055Z AUTO 20008G15KT 9SM CLR 37/19 A2986 RMK AO2
KEDC 182155Z AUTO 19008KT 10SM CLR 37/18 A2985 RMK AO2
KEDC 182255Z AUTO 19007KT 10SM CLR 37/18 A2984 RMK AO2
KEDC 182355Z AUTO 17006KT 10SM CLR 37/18 A2984 RMK AO2
KEDC 190055Z AUTO 14010G15KT 10SM SCT075 35/19 A2984 RMK AO2
KEDC 190155Z AUTO 16009KT 140V200 10SM CLR 33/20 A2986 RMK AO2
KEDC 190255Z AUTO 17008G16KT 10SM CLR 31/20 A2989 RMK AO2
KEDC 190355Z AUTO 17004KT 10SM CLR 29/21 A2993 RMK AO2
KEDC 190455Z AUTO 19007KT 10SM FEW049 28/22 A2994 RMK AO2
KEDC 190555Z AUTO 19006KT 10SM CLR 27/23 A2995 RMK AO2



Page loaded:  06:32 UTC  |   11:32 PM Pacific  |   12:32 AM Mountain  |   01:32 AM Central  |   02:32 AM Eastern

 

ADVISORIES

FORECASTS

FORECASTS

OBSERVATIONS

USER TOOLS

ABOUT US